createdAt,value
2022-08-08T00:00:52.464Z,98437.78
2022-08-08T00:02:58.194Z,98433.50
2022-08-08T00:04:59.557Z,98432.66
2022-08-08T00:07:00.904Z,98447.16
2022-08-08T00:09:16.099Z,98433.50
2022-08-08T00:11:18.003Z,98436.91
2022-08-08T00:13:20.913Z,98435.22
2022-08-08T00:15:57.130Z,98433.56
2022-08-08T00:18:03.215Z,98427.59
2022-08-08T00:20:05.411Z,98429.31
2022-08-08T00:22:10.266Z,98425.81
2022-08-08T00:24:11.997Z,98459.94
2022-08-08T00:26:14.042Z,98430.84
2022-08-08T00:28:35.817Z,98437.72
2022-08-08T00:30:45.160Z,98432.59
2022-08-08T00:32:59.389Z,98430.03
2022-08-08T00:35:18.402Z,98432.53
2022-08-08T00:37:48.223Z,98429.91
2022-08-08T00:41:10.510Z,98427.34
2022-08-08T00:42:12.669Z,98428.25
2022-08-08T00:44:20.175Z,98435.09
2022-08-08T00:46:21.880Z,98431.66
2022-08-08T00:48:29.429Z,98435.13
2022-08-08T00:50:32.043Z,98436.88
2022-08-08T00:52:34.671Z,98435.22
2022-08-08T00:54:41.714Z,98435.13
2022-08-08T00:56:43.014Z,98434.22
2022-08-08T00:58:54.577Z,98438.31
2022-08-08T01:00:56.489Z,98432.28
2022-08-08T01:04:01.527Z,98434.00
2022-08-08T01:05:28.911Z,98439.13
2022-08-08T01:07:54.716Z,98440.88
2022-08-08T01:09:58.839Z,98440.88
2022-08-08T01:12:00.205Z,98447.72
2022-08-08T01:14:04.382Z,98439.09
2022-08-08T01:16:05.687Z,98439.03
2022-08-08T01:18:16.368Z,98434.81
2022-08-08T01:20:26.979Z,98439.16
2022-08-08T01:22:35.009Z,98439.19
2022-08-08T01:24:37.522Z,98444.34
2022-08-08T01:26:39.925Z,98433.25
2022-08-08T01:28:51.438Z,98441.78
2022-08-08T01:30:53.482Z,98440.09
2022-08-08T01:32:55.151Z,98426.44
2022-08-08T01:34:56.492Z,98429.84
2022-08-08T01:36:58.422Z,98429.03
2022-08-08T01:39:03.259Z,98432.47
2022-08-08T01:41:04.603Z,98435.03
2022-08-08T01:43:05.966Z,98431.66
2022-08-08T01:45:09.982Z,98431.66
2022-08-08T01:48:14.176Z,98433.31
2022-08-08T01:49:37.185Z,98433.38
2022-08-08T01:52:43.434Z,98431.66
2022-08-08T01:54:16.384Z,98436.78
2022-08-08T01:56:31.101Z,98432.53
2022-08-08T01:58:39.542Z,98431.69
2022-08-08T02:00:48.398Z,98431.69
2022-08-08T02:02:50.108Z,98427.34
2022-08-08T02:04:52.282Z,98429.91
2022-08-08T02:06:53.699Z,98419.50
2022-08-08T02:08:56.063Z,98425.47
2022-08-08T02:10:59.204Z,98420.38
2022-08-08T02:13:00.499Z,98423.81
2022-08-08T02:15:04.166Z,98423.88
2022-08-08T02:17:10.745Z,98419.59
2022-08-08T02:19:26.659Z,98417.75
2022-08-08T02:22:01.476Z,98431.47
2022-08-08T02:24:03.948Z,98425.56
2022-08-08T02:26:08.213Z,98425.56
2022-08-08T02:28:11.663Z,98431.63
2022-08-08T02:30:20.920Z,98431.63
2022-08-08T02:32:26.157Z,98430.78
2022-08-08T02:34:33.421Z,98436.78
2022-08-08T02:36:36.610Z,98435.94
2022-08-08T02:38:37.975Z,98432.47
2022-08-08T02:40:42.276Z,98429.78
2022-08-08T02:44:35.858Z,98432.41
2022-08-08T02:45:18.622Z,98435.59
2022-08-08T02:47:22.538Z,98440.13
2022-08-08T02:49:27.624Z,98438.59
2022-08-08T02:51:55.678Z,98444.63
2022-08-08T02:54:00.979Z,98417.94
2022-08-08T02:56:03.671Z,98449.91
2022-08-08T02:58:05.050Z,98443.16
2022-08-08T03:00:15.969Z,98449.19
2022-08-08T03:02:30.877Z,98439.75
2022-08-08T03:05:02.557Z,98448.69
2022-08-08T03:06:53.728Z,98452.06
2022-08-08T03:08:55.262Z,98450.78
2022-08-08T03:10:56.572Z,98456.47
2022-08-08T03:13:01.462Z,98458.00
2022-08-08T03:16:00.784Z,98450.31
2022-08-08T03:17:34.090Z,98448.56
2022-08-08T03:19:50.953Z,98448.53
2022-08-08T03:21:58.560Z,98451.09
2022-08-08T03:24:02.118Z,98451.91
2022-08-08T03:26:03.586Z,98456.22
2022-08-08T03:28:04.885Z,98452.75
2022-08-08T03:30:06.665Z,98444.22
2022-08-08T03:32:29.222Z,98451.09
2022-08-08T03:34:32.087Z,98452.81
2022-08-08T03:36:33.418Z,98452.81
2022-08-08T03:38:54.075Z,98448.56
2022-08-08T03:40:56.762Z,98450.25
2022-08-08T03:43:15.540Z,98448.59
2022-08-08T03:46:05.358Z,98450.31
2022-08-08T03:47:45.766Z,98451.16
2022-08-08T03:50:00.715Z,98453.72
2022-08-08T03:52:03.395Z,98454.56
2022-08-08T03:54:05.250Z,98454.63
2022-08-08T03:56:09.711Z,98451.22
2022-08-08T03:58:36.418Z,98460.59
2022-08-08T04:00:32.477Z,98459.75
2022-08-08T04:02:47.649Z,98458.91
2022-08-08T04:04:53.668Z,98474.25
2022-08-08T04:06:54.996Z,98460.63
2022-08-08T04:08:56.297Z,98463.19
2022-08-08T04:11:00.052Z,98472.59
2022-08-08T04:13:17.113Z,98465.78
2022-08-08T04:15:22.355Z,98472.59
2022-08-08T04:17:46.026Z,98474.31
2022-08-08T04:19:45.119Z,98484.53
2022-08-08T04:21:47.336Z,98482.03
2022-08-08T04:24:05.593Z,98488.00
2022-08-08T04:26:11.268Z,98489.66
2022-08-08T04:28:36.271Z,98495.63
2022-08-08T04:30:36.440Z,98497.34
2022-08-08T04:32:41.428Z,98490.56
2022-08-08T04:34:58.484Z,98493.09
2022-08-08T04:37:00.972Z,98492.31
2022-08-08T04:40:03.994Z,98493.09
2022-08-08T04:41:27.015Z,98501.66
2022-08-08T04:43:45.307Z,98503.34
2022-08-08T04:45:48.288Z,98508.50
2022-08-08T04:47:50.900Z,98503.41
2022-08-08T04:50:00.346Z,98504.25
2022-08-08T04:52:04.067Z,98508.56
2022-08-08T04:54:39.072Z,98511.13
2022-08-08T04:56:26.857Z,98510.25
2022-08-08T04:58:28.244Z,98508.56
2022-08-08T05:00:30.823Z,98512.81
2022-08-08T05:02:32.316Z,98504.31
2022-08-08T05:04:33.784Z,98511.97
2022-08-08T05:06:36.485Z,98512.00
2022-08-08T05:08:40.657Z,98517.09
2022-08-08T05:10:42.679Z,98509.44
2022-08-08T05:13:01.819Z,98512.88
2022-08-08T05:15:04.473Z,98510.31
2022-08-08T05:17:08.708Z,98514.53
2022-08-08T05:20:09.733Z,98508.63
2022-08-08T05:21:43.705Z,98514.59
2022-08-08T05:24:04.230Z,98512.03
2022-08-08T05:26:10.218Z,98518.00
2022-08-08T05:28:15.633Z,98514.59
2022-08-08T05:30:36.921Z,98513.72
2022-08-08T05:32:39.789Z,98516.28
2022-08-08T05:34:41.300Z,98518.00
2022-08-08T05:36:42.669Z,98519.75
2022-08-08T05:38:44.909Z,98522.31
2022-08-08T05:40:46.220Z,98522.31
2022-08-08T05:42:51.357Z,98518.03
2022-08-08T05:44:52.988Z,98526.56
2022-08-08T05:46:54.594Z,98518.03
2022-08-08T05:49:10.353Z,98524.88
2022-08-08T05:51:15.753Z,98518.03
2022-08-08T05:53:54.464Z,98530.84
2022-08-08T05:56:11.550Z,98531.69
2022-08-08T05:58:06.010Z,98535.09
2022-08-08T06:00:22.649Z,98534.25
2022-08-08T06:02:44.080Z,98533.41
2022-08-08T06:04:54.877Z,98536.81
2022-08-08T06:07:00.075Z,98534.25
2022-08-08T06:09:41.831Z,98535.94
2022-08-08T06:11:28.210Z,98535.09
2022-08-08T06:13:36.565Z,98541.91
2022-08-08T06:15:51.359Z,98536.81
2022-08-08T06:18:18.729Z,98542.78
2022-08-08T06:20:16.500Z,98539.31
2022-08-08T06:22:36.504Z,98543.53
2022-08-08T06:24:37.871Z,98540.97
2022-08-08T06:26:50.439Z,98544.34
2022-08-08T06:28:54.239Z,98540.91
2022-08-08T06:30:57.685Z,98545.13
2022-08-08T06:33:01.282Z,98529.19
2022-08-08T06:36:04.575Z,98545.09
2022-08-08T06:37:25.951Z,98536.56
2022-08-08T06:39:27.466Z,98544.19
2022-08-08T06:41:34.531Z,98540.75
2022-08-08T06:43:35.910Z,98547.56
2022-08-08T06:45:38.893Z,98545.00
2022-08-08T06:47:58.578Z,98544.13
2022-08-08T06:50:04.145Z,98543.28
2022-08-08T06:52:05.684Z,98546.66
2022-08-08T06:54:07.026Z,98547.50
2022-08-08T06:56:09.236Z,98550.03
2022-08-08T06:58:10.573Z,98540.66
2022-08-08T07:00:13.206Z,98545.78
2022-08-08T07:02:27.378Z,98439.53
2022-08-08T07:04:41.497Z,98550.00
2022-08-08T07:06:50.633Z,98545.75
2022-08-08T07:08:52.926Z,98545.69
2022-08-08T07:10:54.231Z,98557.63
2022-08-08T07:12:55.582Z,98547.41
2022-08-08T07:14:57.976Z,98557.63
2022-08-08T07:17:02.746Z,98552.47
2022-08-08T07:19:10.143Z,98552.47
2022-08-08T07:21:19.251Z,98554.16
2022-08-08T07:23:23.553Z,98552.47
2022-08-08T07:25:29.435Z,98560.97
2022-08-08T07:27:47.213Z,98556.72
2022-08-08T07:29:54.707Z,98558.38
2022-08-08T07:32:03.232Z,98564.34
2022-08-08T07:34:09.019Z,98557.53
2022-08-08T07:36:10.689Z,98554.06
2022-08-08T07:38:21.008Z,98555.81
2022-08-08T07:40:29.428Z,98554.97
2022-08-08T07:42:34.550Z,98562.59
2022-08-08T07:44:40.496Z,98566.84
2022-08-08T07:46:44.948Z,98559.97
2022-08-08T07:48:46.800Z,98564.19
2022-08-08T07:50:48.145Z,98559.84
2022-08-08T07:52:49.540Z,98563.19
2022-08-08T07:54:50.859Z,98575.06
2022-08-08T07:56:52.690Z,98565.63
2022-08-08T07:58:53.987Z,98572.38
2022-08-08T08:00:56.655Z,98571.50
2022-08-08T08:03:01.395Z,98571.44
2022-08-08T08:05:03.565Z,98572.25
2022-08-08T08:07:05.253Z,98580.72
2022-08-08T08:09:07.311Z,98569.66
2022-08-08T08:11:08.618Z,98574.75
2022-08-08T08:13:25.603Z,98569.59
2022-08-08T08:15:43.405Z,98578.09
2022-08-08T08:17:55.780Z,98578.91
2022-08-08T08:19:57.459Z,98583.16
2022-08-08T08:22:00.844Z,98575.47
2022-08-08T08:24:09.086Z,98578.84
2022-08-08T08:26:15.027Z,98575.41
2022-08-08T08:28:29.116Z,98581.34
2022-08-08T08:30:31.537Z,98585.59
2022-08-08T08:32:36.349Z,98582.16
2022-08-08T08:34:43.363Z,98583.84
2022-08-08T08:36:51.304Z,98577.81
2022-08-08T08:38:56.086Z,98583.81
2022-08-08T08:40:57.484Z,98582.09
2022-08-08T08:42:59.065Z,98588.91
2022-08-08T08:45:02.071Z,98584.63
2022-08-08T08:47:18.078Z,98584.63
2022-08-08T08:49:19.400Z,98587.16
2022-08-08T08:51:20.844Z,98583.75
2022-08-08T08:53:54.380Z,98588.00
2022-08-08T08:55:43.612Z,98586.28
2022-08-08T08:57:46.954Z,98587.09
2022-08-08T09:00:00.033Z,98589.66
2022-08-08T09:02:06.407Z,98588.81
2022-08-08T09:04:10.144Z,98606.72
2022-08-08T09:06:34.042Z,98587.94
2022-08-08T09:08:35.833Z,98599.00
2022-08-08T09:10:37.983Z,98594.78
2022-08-08T09:12:39.467Z,98590.47
2022-08-08T09:14:42.684Z,98593.06
2022-08-08T09:16:44.547Z,98599.00
2022-08-08T09:18:49.087Z,98588.75
2022-08-08T09:21:56.667Z,98594.72
2022-08-08T09:23:17.854Z,98591.31
2022-08-08T09:25:36.056Z,98596.44
2022-08-08T09:27:57.183Z,98593.03
2022-08-08T09:29:59.651Z,98594.72
2022-08-08T09:32:01.014Z,98590.47
2022-08-08T09:34:30.221Z,98588.75
2022-08-08T09:36:24.415Z,98597.28
2022-08-08T09:38:28.628Z,98599.84
2022-08-08T09:40:43.988Z,98599.84
2022-08-08T09:42:52.105Z,98595.56
2022-08-08T09:44:53.528Z,98596.38
2022-08-08T09:46:57.453Z,98598.09
2022-08-08T09:49:41.551Z,98593.81
2022-08-08T09:51:27.618Z,98594.66
2022-08-08T09:53:53.147Z,98575.88
2022-08-08T09:56:05.108Z,98581.84
2022-08-08T09:58:07.632Z,98585.28
2022-08-08T10:00:50.185Z,98583.56
2022-08-08T10:02:33.519Z,98583.56
2022-08-08T10:04:41.439Z,98575.88
2022-08-08T10:06:45.179Z,98577.53
2022-08-08T10:08:46.782Z,98578.38
2022-08-08T10:10:51.294Z,98569.00
2022-08-08T10:12:57.322Z,98579.22
2022-08-08T10:14:58.944Z,98583.50
2022-08-08T10:17:02.515Z,98580.94
2022-08-08T10:19:23.792Z,98572.41
2022-08-08T10:21:33.103Z,98567.22
2022-08-08T10:23:47.112Z,98561.25
2022-08-08T10:25:56.177Z,98574.06
2022-08-08T10:27:58.897Z,98574.97
2022-08-08T10:30:01.384Z,98565.56
2022-08-08T10:32:24.251Z,98569.78
2022-08-08T10:34:27.389Z,98564.66
2022-08-08T10:36:31.134Z,98565.50
2022-08-08T10:38:34.737Z,98566.31
2022-08-08T10:40:36.122Z,98562.88
2022-08-08T10:42:37.724Z,98552.59
2022-08-08T10:44:45.853Z,98552.59
2022-08-08T10:46:50.566Z,98552.59
2022-08-08T10:48:57.154Z,98553.44
2022-08-08T10:51:00.440Z,98558.56
2022-08-08T10:53:02.375Z,98557.69
2022-08-08T10:55:06.708Z,98558.50
2022-08-08T10:57:09.149Z,98563.69
2022-08-08T10:59:14.170Z,98558.56
2022-08-08T11:01:16.258Z,98571.31
2022-08-08T11:03:18.825Z,98556.78
2022-08-08T11:05:39.147Z,98546.53
2022-08-08T11:08:37.005Z,98557.59
2022-08-08T11:10:01.904Z,98557.56
2022-08-08T11:12:12.826Z,98551.53
2022-08-08T11:14:16.074Z,98552.34
2022-08-08T11:16:32.639Z,98557.47
2022-08-08T11:18:34.769Z,98555.75
2022-08-08T11:20:36.078Z,98546.28
2022-08-08T11:22:37.504Z,98553.97
2022-08-08T11:24:39.286Z,98549.72
2022-08-08T11:26:53.922Z,98546.25
2022-08-08T11:28:58.399Z,98549.63
2022-08-08T11:31:00.179Z,98551.31
2022-08-08T11:33:05.219Z,98553.03
2022-08-08T11:35:29.561Z,98542.75
2022-08-08T11:38:34.350Z,98411.22
2022-08-08T11:39:57.492Z,98536.75
2022-08-08T11:41:59.223Z,98387.56
2022-08-08T11:44:00.787Z,98528.97
2022-08-08T11:46:14.211Z,98531.66
2022-08-08T11:48:20.334Z,98535.31
2022-08-08T11:50:23.184Z,98542.88
2022-08-08T11:52:27.417Z,98530.78
2022-08-08T11:54:33.891Z,98538.41
2022-08-08T11:56:35.727Z,98534.03
2022-08-08T11:58:43.693Z,98533.13
2022-08-08T12:00:52.196Z,98535.66
2022-08-08T12:02:55.068Z,98537.38
2022-08-08T12:04:56.520Z,98532.19
2022-08-08T12:06:59.336Z,98525.34
2022-08-08T12:09:00.707Z,98531.31
2022-08-08T12:11:02.163Z,98534.75
2022-08-08T12:13:04.498Z,98539.00
2022-08-08T12:15:06.319Z,98529.59
2022-08-08T12:17:10.923Z,98530.44
2022-08-08T12:19:12.345Z,98530.38
2022-08-08T12:21:14.264Z,98533.75
2022-08-08T12:23:30.470Z,98533.75
2022-08-08T12:25:44.862Z,98527.75
2022-08-08T12:27:59.218Z,98520.84
2022-08-08T12:30:02.200Z,98523.41
2022-08-08T12:32:03.727Z,98520.00
2022-08-08T12:34:10.706Z,98517.34
2022-08-08T12:36:12.512Z,98525.84
2022-08-08T12:38:18.011Z,98520.69
2022-08-08T12:40:24.022Z,98523.41
2022-08-08T12:42:27.472Z,98529.69
2022-08-08T12:44:36.627Z,98525.41
2022-08-08T12:46:40.445Z,98527.88
2022-08-08T12:48:50.568Z,98525.13
2022-08-08T12:51:02.699Z,98517.34
2022-08-08T12:53:04.186Z,98382.66
2022-08-08T12:55:09.168Z,98518.09
2022-08-08T12:57:17.099Z,98530.00
2022-08-08T12:59:18.807Z,98525.72
2022-08-08T13:01:35.039Z,98524.03
2022-08-08T13:03:38.430Z,98513.72
2022-08-08T13:06:04.057Z,98516.31
2022-08-08T13:08:05.273Z,98524.00
2022-08-08T13:10:10.680Z,98506.03
2022-08-08T13:12:27.812Z,98510.31
2022-08-08T13:14:33.644Z,98517.94
2022-08-08T13:16:37.128Z,98514.53
2022-08-08T13:18:48.875Z,98515.38
2022-08-08T13:20:58.466Z,98512.81
2022-08-08T13:23:35.221Z,98506.84
2022-08-08T13:25:22.360Z,98508.94
2022-08-08T13:27:29.974Z,98510.50
2022-08-08T13:29:37.976Z,98504.19
2022-08-08T13:31:42.299Z,98514.53
2022-08-08T13:33:44.031Z,98512.25
2022-08-08T13:35:50.118Z,98509.09
2022-08-08T13:38:06.182Z,98505.69
2022-08-08T13:40:09.128Z,98509.97
2022-08-08T13:42:10.437Z,98506.81
2022-08-08T13:44:12.519Z,98506.22
2022-08-08T13:46:28.796Z,98502.06
2022-08-08T13:48:30.352Z,98505.41
2022-08-08T13:50:37.384Z,98490.03
2022-08-08T13:52:41.589Z,98496.75
2022-08-08T13:54:44.051Z,98494.19
2022-08-08T13:56:59.732Z,98495.03
2022-08-08T13:59:02.091Z,98503.56
2022-08-08T14:01:03.386Z,98501.06
2022-08-08T14:03:26.725Z,98491.88
2022-08-08T14:05:27.487Z,98493.59
2022-08-08T14:07:29.815Z,98493.53
2022-08-08T14:10:03.399Z,98491.06
2022-08-08T14:11:54.514Z,98492.88
2022-08-08T14:13:59.480Z,98491.94
2022-08-08T14:16:02.378Z,98493.63
2022-08-08T14:18:36.304Z,98489.38
2022-08-08T14:20:57.863Z,98490.06
2022-08-08T14:22:47.659Z,98484.94
2022-08-08T14:24:51.846Z,98485.84
2022-08-08T14:26:53.206Z,98492.72
2022-08-08T14:28:55.255Z,98495.16
2022-08-08T14:30:56.610Z,98494.38
2022-08-08T14:32:58.816Z,98497.28
2022-08-08T14:35:00.166Z,98501.72
2022-08-08T14:37:05.703Z,98500.03
2022-08-08T14:39:11.550Z,98506.69
2022-08-08T14:41:13.340Z,98505.63
2022-08-08T14:43:31.277Z,98499.06
2022-08-08T14:46:02.409Z,98504.28
2022-08-08T14:48:03.392Z,98498.13
2022-08-08T14:50:11.342Z,98496.38
2022-08-08T14:52:17.659Z,98501.78
2022-08-08T14:54:28.568Z,98499.13
2022-08-08T14:56:30.905Z,98500.53
2022-08-08T14:58:33.507Z,98494.81
2022-08-08T15:00:35.294Z,98496.66
2022-08-08T15:02:38.012Z,98502.75
2022-08-08T15:05:11.475Z,98508.06
2022-08-08T15:07:19.023Z,98493.28
2022-08-08T15:09:24.484Z,98496.28
2022-08-08T15:11:26.410Z,98491.13
2022-08-08T15:13:35.194Z,98492.38
2022-08-08T15:16:01.283Z,98484.59
2022-08-08T15:18:03.838Z,98486.38
2022-08-08T15:20:06.736Z,98493.06
2022-08-08T15:22:10.759Z,98491.63
2022-08-08T15:24:14.446Z,98482.78
2022-08-08T15:26:17.556Z,98476.03
2022-08-08T15:28:33.583Z,98478.78
2022-08-08T15:30:36.187Z,98480.53
2022-08-08T15:32:38.729Z,98482.31
2022-08-08T15:34:40.190Z,98485.97
2022-08-08T15:36:42.559Z,98481.84
2022-08-08T15:38:49.730Z,98481.75
2022-08-08T15:40:52.253Z,98482.34
2022-08-08T15:42:54.082Z,98485.94
2022-08-08T15:44:55.467Z,98480.13
2022-08-08T15:46:57.766Z,98474.09
2022-08-08T15:48:59.096Z,98474.84
2022-08-08T15:51:06.352Z,98484.00
2022-08-08T15:53:08.541Z,98492.78
2022-08-08T15:55:12.159Z,98484.50
2022-08-08T15:57:15.106Z,98494.22
2022-08-08T15:59:16.490Z,98492.50
2022-08-08T16:01:18.089Z,98486.00
2022-08-08T16:03:19.558Z,98491.06
2022-08-08T16:05:21.055Z,98487.47
2022-08-08T16:07:22.674Z,98485.75
2022-08-08T16:13:05.867Z,98477.19
2022-08-08T16:13:20.819Z,98487.81
2022-08-08T16:14:15.847Z,98491.16
2022-08-08T16:16:18.804Z,98482.16
2022-08-08T16:18:23.545Z,98485.53
2022-08-08T16:20:24.895Z,98489.06
2022-08-08T16:22:31.178Z,98493.72
2022-08-08T16:24:32.598Z,98485.03
2022-08-08T16:26:35.887Z,98487.41
2022-08-08T16:28:37.554Z,98487.69
2022-08-08T16:30:43.011Z,98491.94
2022-08-08T16:32:48.392Z,98492.44
2022-08-08T16:34:51.028Z,98488.56
2022-08-08T16:36:52.738Z,98493.09
2022-08-08T16:38:56.749Z,98490.97
2022-08-08T16:40:58.119Z,98496.09
2022-08-08T16:43:03.266Z,98498.53
2022-08-08T16:45:11.386Z,98497.22
2022-08-08T16:47:40.175Z,98496.47
2022-08-08T16:49:43.555Z,98488.63
2022-08-08T16:55:18.252Z,98492.97
2022-08-08T16:55:18.391Z,98500.84
2022-08-08T16:56:27.562Z,98488.88
2022-08-08T16:58:34.258Z,98499.88
2022-08-08T17:00:36.088Z,98502.66
2022-08-08T17:02:44.185Z,98499.25
2022-08-08T17:04:45.993Z,98502.72
2022-08-08T17:06:47.319Z,98505.56
2022-08-08T17:08:48.743Z,98509.38
2022-08-08T17:10:58.196Z,98507.25
2022-08-08T17:13:00.810Z,98510.56
2022-08-08T17:15:20.330Z,98513.13
2022-08-08T17:17:41.773Z,98514.34
2022-08-08T17:19:45.767Z,98519.09
2022-08-08T17:21:50.748Z,98521.47
2022-08-08T17:24:00.750Z,98514.63
2022-08-08T17:26:05.142Z,98514.31
2022-08-08T17:28:06.687Z,98515.78
2022-08-08T17:30:08.268Z,98521.16
2022-08-08T17:32:10.240Z,98515.25
2022-08-08T17:34:49.585Z,98519.59
2022-08-08T17:36:32.831Z,98525.97
2022-08-08T17:38:34.145Z,98523.59
2022-08-08T17:40:35.887Z,98527.13
2022-08-08T17:42:37.384Z,98523.78
2022-08-08T17:44:39.793Z,98523.94
2022-08-08T17:46:45.581Z,98523.09
2022-08-08T17:48:47.885Z,98523.16
2022-08-08T17:50:49.275Z,98526.66
2022-08-08T17:52:50.708Z,98523.28
2022-08-08T17:54:56.025Z,98524.41
2022-08-08T17:56:57.975Z,98521.03
2022-08-08T17:58:59.949Z,98527.69
2022-08-08T18:01:02.424Z,98382.34
2022-08-08T18:03:08.565Z,98536.75
2022-08-08T18:05:14.683Z,98535.13
2022-08-08T18:08:11.401Z,98533.53
2022-08-08T18:09:45.699Z,98536.16
2022-08-08T18:11:49.190Z,98536.22
2022-08-08T18:13:52.516Z,98536.28
2022-08-08T18:15:59.925Z,98535.50
2022-08-08T18:18:27.856Z,98547.50
2022-08-08T18:20:36.487Z,98545.06
2022-08-08T18:22:50.829Z,98546.78
2022-08-08T18:24:52.759Z,98547.63
2022-08-08T18:26:56.817Z,98549.47
2022-08-08T18:28:58.320Z,98556.41
2022-08-08T18:31:02.648Z,98562.44
2022-08-08T18:33:10.481Z,98563.38
2022-08-08T18:35:21.449Z,98567.69
2022-08-08T18:37:34.825Z,98571.13
2022-08-08T18:39:36.831Z,98566.13
2022-08-08T18:41:51.095Z,98572.84
2022-08-08T18:43:59.696Z,98576.88
2022-08-08T18:46:54.555Z,98581.53
2022-08-08T18:48:22.329Z,98585.91
2022-08-08T18:50:27.371Z,98588.72
2022-08-08T18:52:29.838Z,98588.78
2022-08-08T18:54:33.563Z,98448.16
2022-08-08T18:56:35.420Z,98585.31
2022-08-08T18:58:36.821Z,98600.75
2022-08-08T19:00:38.249Z,98600.00
2022-08-08T19:02:48.313Z,98599.22
2022-08-08T19:04:56.457Z,98603.34
2022-08-08T19:06:57.775Z,98602.00
2022-08-08T19:08:59.139Z,98603.47
2022-08-08T19:11:01.507Z,98610.72
2022-08-08T19:13:03.552Z,98610.38
2022-08-08T19:15:06.008Z,98610.44
2022-08-08T19:17:07.322Z,98618.00
2022-08-08T19:19:14.024Z,98616.66
2022-08-08T19:21:27.977Z,98611.50
2022-08-08T19:23:35.387Z,98620.50
2022-08-08T19:26:26.975Z,98479.72
2022-08-08T19:28:00.076Z,98618.81
2022-08-08T19:30:01.582Z,98623.13
2022-08-08T19:32:03.279Z,98622.44
2022-08-08T19:34:29.947Z,98624.84
2022-08-08T19:36:35.243Z,98620.81
2022-08-08T19:38:36.604Z,98631.25
2022-08-08T19:40:37.951Z,98624.31
2022-08-08T19:42:42.636Z,98628.53
2022-08-08T19:44:46.137Z,98630.97
2022-08-08T19:46:52.083Z,98626.06
2022-08-08T19:48:53.393Z,98639.97
2022-08-08T19:50:54.765Z,98631.00
2022-08-08T19:52:59.684Z,98626.16
2022-08-08T19:55:04.769Z,98626.88
2022-08-08T19:57:07.734Z,98625.72
2022-08-08T19:59:09.632Z,98627.59
2022-08-08T20:01:18.298Z,98628.34
2022-08-08T20:04:00.987Z,98647.47
2022-08-08T20:06:14.228Z,98636.91
2022-08-08T20:08:37.479Z,98640.34
2022-08-08T20:10:25.955Z,98639.66
2022-08-08T20:12:32.053Z,98641.41
2022-08-08T20:14:41.869Z,98641.44
2022-08-08T20:16:43.789Z,98636.38
2022-08-08T20:18:52.540Z,98647.47
2022-08-08T20:20:54.916Z,98653.41
2022-08-08T20:22:57.582Z,98653.44
2022-08-08T20:25:00.389Z,98656.06
2022-08-08T20:27:01.915Z,98653.50
2022-08-08T20:29:03.294Z,98651.81
2022-08-08T20:31:05.291Z,98652.69
2022-08-08T20:33:19.878Z,98650.13
2022-08-08T20:35:15.407Z,98651.88
2022-08-08T20:37:24.415Z,98644.06
2022-08-08T20:39:51.136Z,98650.03
2022-08-08T20:41:53.509Z,98650.88
2022-08-08T20:43:56.735Z,98652.59
2022-08-08T20:46:03.507Z,98648.31
2022-08-08T20:48:05.882Z,98653.50
2022-08-08T20:50:10.070Z,98655.22
2022-08-08T20:52:12.173Z,98653.50
2022-08-08T20:54:15.769Z,98656.94
2022-08-08T20:56:35.379Z,98653.50
2022-08-08T20:58:37.754Z,98659.50
2022-08-08T21:00:42.437Z,98651.81
2022-08-08T21:02:48.489Z,98652.69
2022-08-08T21:04:53.897Z,98648.41
2022-08-08T21:06:58.560Z,98646.75
2022-08-08T21:08:59.875Z,98657.81
2022-08-08T21:11:02.373Z,98657.00
2022-08-08T21:13:05.502Z,98658.66
2022-08-08T21:15:10.173Z,98657.81
2022-08-08T21:17:12.713Z,98658.66
2022-08-08T21:19:16.450Z,98663.81
2022-08-08T21:21:20.525Z,98663.78
2022-08-08T21:24:02.434Z,98656.94
2022-08-08T21:26:00.439Z,98653.50
2022-08-08T21:28:13.308Z,98655.22
2022-08-08T21:30:21.922Z,98650.94
2022-08-08T21:32:25.175Z,98642.41
2022-08-08T21:34:30.011Z,98646.69
2022-08-08T21:36:31.553Z,98642.41
2022-08-08T21:38:33.994Z,98642.44
2022-08-08T21:40:35.470Z,98646.75
2022-08-08T21:42:36.975Z,98652.75
2022-08-08T21:44:39.142Z,98651.88
2022-08-08T21:48:07.862Z,98650.19
2022-08-08T21:49:23.167Z,98653.59
2022-08-08T21:54:18.265Z,98656.16
2022-08-08T21:54:27.268Z,98655.31
2022-08-08T21:56:26.510Z,98657.88
2022-08-08T21:58:37.701Z,98656.16
2022-08-08T22:00:40.927Z,98657.88
2022-08-08T22:02:42.524Z,98653.59
2022-08-08T22:04:45.582Z,98664.69
2022-08-08T22:06:46.919Z,98659.50
2022-08-08T22:08:48.651Z,98659.50
2022-08-08T22:10:51.935Z,98659.38
2022-08-08T22:12:59.891Z,98657.59
2022-08-08T22:15:16.746Z,98661.88
2022-08-08T22:17:18.437Z,98657.59
2022-08-08T22:19:24.005Z,98656.75
2022-08-08T22:21:25.608Z,98653.31
2022-08-08T22:23:35.975Z,98653.31
2022-08-08T22:25:41.574Z,98656.63
2022-08-08T22:28:04.054Z,98657.50
2022-08-08T22:30:29.781Z,98654.06
2022-08-08T22:32:31.755Z,98656.63
2022-08-08T22:34:33.133Z,98662.69
2022-08-08T22:36:41.019Z,98666.16
2022-08-08T22:38:48.915Z,98663.66
2022-08-08T22:40:50.454Z,98671.28
2022-08-08T22:42:51.754Z,98658.41
2022-08-08T22:44:53.053Z,98671.28
2022-08-08T22:46:54.355Z,98667.00
2022-08-08T22:48:56.526Z,98668.78
2022-08-08T22:50:57.843Z,98661.94
2022-08-08T22:54:30.809Z,98662.84
2022-08-08T22:55:21.767Z,98670.56
2022-08-08T22:57:24.567Z,98672.25
2022-08-08T22:59:26.330Z,98665.47
2022-08-08T23:02:03.658Z,98675.66
2022-08-08T23:03:58.535Z,98670.44
2022-08-08T23:06:00.125Z,98673.06
2022-08-08T23:08:01.552Z,98669.63
2022-08-08T23:10:02.943Z,98676.53
2022-08-08T23:12:27.610Z,98669.69
2022-08-08T23:14:25.739Z,98665.47
2022-08-08T23:16:39.901Z,98666.34
2022-08-08T23:18:43.751Z,98665.34
2022-08-08T23:20:45.232Z,98680.78
2022-08-08T23:22:56.740Z,98679.13
2022-08-08T23:24:58.159Z,98673.19
2022-08-08T23:27:00.141Z,98666.38
2022-08-08T23:29:01.669Z,98672.31
2022-08-08T23:31:02.976Z,98671.47
2022-08-08T23:33:04.293Z,98676.59
2022-08-08T23:35:08.258Z,98671.50
2022-08-08T23:37:13.848Z,98669.81
2022-08-08T23:39:15.624Z,98668.06
2022-08-08T23:41:22.986Z,98672.34
2022-08-08T23:43:31.642Z,98669.81
2022-08-08T23:49:03.469Z,98665.59
2022-08-08T23:49:06.943Z,98673.25
2022-08-08T23:50:30.864Z,98677.47
2022-08-08T23:52:32.831Z,98674.94
2022-08-08T23:54:42.873Z,98662.16
2022-08-08T23:56:54.382Z,98670.63
2022-08-08T23:58:56.463Z,98663.81
